sensor_id;sensor_type;location;lat;lon;timestamp;pressure;altitude;pressure_sealevel;temperature;humidity
49583;BME280;36329;48.816;44.624;2023-02-28T00:03:00;101369;;;7.4;85.8
49583;BME280;36329;48.816;44.624;2023-02-28T00:06:03;101371;;;7.5;85.4
49583;BME280;36329;48.816;44.624;2023-02-28T00:09:13;101367;;;7.5;85.1
49583;BME280;36329;48.816;44.624;2023-02-28T00:12:15;101352;;;7.3;86.1
49583;BME280;36329;48.816;44.624;2023-02-28T00:15:17;101346;;;7.5;85.5
49583;BME280;36329;48.816;44.624;2023-02-28T00:18:19;101355;;;7.3;86.1
49583;BME280;36329;48.816;44.624;2023-02-28T00:21:21;101337;;;7.4;85.7
49583;BME280;36329;48.816;44.624;2023-02-28T00:24:24;101339;;;7.4;85.2
49583;BME280;36329;48.816;44.624;2023-02-28T00:27:32;101333;;;7.1;87
49583;BME280;36329;48.816;44.624;2023-02-28T00:30:35;101334;;;7;86.7
49583;BME280;36329;48.816;44.624;2023-02-28T00:33:37;101336;;;6.9;88
49583;BME280;36329;48.816;44.624;2023-02-28T00:36:40;101347;;;6.8;89.3
49583;BME280;36329;48.816;44.624;2023-02-28T00:39:42;101349;;;6.9;89
49583;BME280;36329;48.816;44.624;2023-02-28T00:42:44;101358;;;7.1;87.5
49583;BME280;36329;48.816;44.624;2023-02-28T00:45:46;101350;;;7;87.8
49583;BME280;36329;48.816;44.624;2023-02-28T00:48:48;101356;;;7;88.1
49583;BME280;36329;48.816;44.624;2023-02-28T00:51:51;101312;;;6.7;89.6
49583;BME280;36329;48.816;44.624;2023-02-28T00:54:53;101372;;;6.8;89
49583;BME280;36329;48.816;44.624;2023-02-28T00:57:55;101382;;;6.9;88.3
49583;BME280;36329;48.816;44.624;2023-02-28T01:00:57;101350;;;6.7;88.9
49583;BME280;36329;48.816;44.624;2023-02-28T01:04:00;101346;;;6.6;90
49583;BME280;36329;48.816;44.624;2023-02-28T01:07:09;101351;;;6.6;89.6
49583;BME280;36329;48.816;44.624;2023-02-28T01:10:11;101366;;;6.7;89.4
49583;BME280;36329;48.816;44.624;2023-02-28T01:13:14;101378;;;6.4;90.2
49583;BME280;36329;48.816;44.624;2023-02-28T01:16:19;101388;;;6;93.2
49583;BME280;36329;48.816;44.624;2023-02-28T01:19:21;101395;;;5.8;97.2
49583;BME280;36329;48.816;44.624;2023-02-28T01:22:24;101402;;;5.6;99.9
49583;BME280;36329;48.816;44.624;2023-02-28T01:25:26;101412;;;5.4;100
49583;BME280;36329;48.816;44.624;2023-02-28T01:28:28;101401;;;5.2;100
49583;BME280;36329;48.816;44.624;2023-02-28T01:31:30;101397;;;4.8;100
49583;BME280;36329;48.816;44.624;2023-02-28T01:34:32;101388;;;4.7;100
49583;BME280;36329;48.816;44.624;2023-02-28T01:37:35;101385;;;4.6;100
49583;BME280;36329;48.816;44.624;2023-02-28T01:40:36;101388;;;4.7;100
49583;BME280;36329;48.816;44.624;2023-02-28T01:43:54;101401;;;4.9;100
49583;BME280;36329;48.816;44.624;2023-02-28T01:46:57;101398;;;4.7;100
49583;BME280;36329;48.816;44.624;2023-02-28T01:50:02;101406;;;4.7;100
49583;BME280;36329;48.816;44.624;2023-02-28T01:53:11;101407;;;4.6;100
49583;BME280;36329;48.816;44.624;2023-02-28T01:56:18;101394;;;4.7;100
49583;BME280;36329;48.816;44.624;2023-02-28T01:59:24;101398;;;4.9;100
49583;BME280;36329;48.816;44.624;2023-02-28T02:02:29;101417;;;4.6;100
49583;BME280;36329;48.816;44.624;2023-02-28T02:05:32;101429;;;4.5;100
49583;BME280;36329;48.816;44.624;2023-02-28T02:08:36;101428;;;4.6;100
49583;BME280;36329;48.816;44.624;2023-02-28T02:11:40;101446;;;4.6;100
49583;BME280;36329;48.816;44.624;2023-02-28T02:14:51;101447;;;4.4;100
49583;BME280;36329;48.816;44.624;2023-02-28T02:18:03;101455;;;4.4;100
49583;BME280;36329;48.816;44.624;2023-02-28T02:21:16;101462;;;4.6;100
49583;BME280;36329;48.816;44.624;2023-02-28T02:24:49;101447;;;4.5;100
49583;BME280;36329;48.816;44.624;2023-02-28T02:28:15;101443;;;4.3;100
49583;BME280;36329;48.816;44.624;2023-02-28T02:31:33;101430;;;4.4;100
49583;BME280;36329;48.816;44.624;2023-02-28T02:34:42;101411;;;4.4;100
49583;BME280;36329;48.816;44.624;2023-02-28T02:37:52;101430;;;4.1;100
49583;BME280;36329;48.816;44.624;2023-02-28T02:41:03;101430;;;4.1;100
49583;BME280;36329;48.816;44.624;2023-02-28T02:44:13;101427;;;4.4;100
49583;BME280;36329;48.816;44.624;2023-02-28T02:47:20;101443;;;4.5;100
49583;BME280;36329;48.816;44.624;2023-02-28T02:50:29;101457;;;4.4;100
49583;BME280;36329;48.816;44.624;2023-02-28T02:53:37;101470;;;4.3;100
49583;BME280;36329;48.816;44.624;2023-02-28T02:56:44;101467;;;4.4;100
49583;BME280;36329;48.816;44.624;2023-02-28T02:59:47;101490;;;4.4;100
49583;BME280;36329;48.816;44.624;2023-02-28T03:02:54;101496;;;4.3;100
49583;BME280;36329;48.816;44.624;2023-02-28T03:06:00;101501;;;4.2;100
49583;BME280;36329;48.816;44.624;2023-02-28T03:09:03;101502;;;4.3;100
49583;BME280;36329;48.816;44.624;2023-02-28T03:12:09;101500;;;4;100
49583;BME280;36329;48.816;44.624;2023-02-28T03:15:19;101498;;;4.1;100
49583;BME280;36329;48.816;44.624;2023-02-28T03:18:41;101508;;;4.1;100
49583;BME280;36329;48.816;44.624;2023-02-28T03:21:56;101524;;;4.1;100
49583;BME280;36329;48.816;44.624;2023-02-28T03:25:06;101525;;;4.4;100
49583;BME280;36329;48.816;44.624;2023-02-28T03:28:15;101519;;;4.4;100
49583;BME280;36329;48.816;44.624;2023-02-28T03:31:27;101517;;;4.3;100
49583;BME280;36329;48.816;44.624;2023-02-28T03:34:33;101521;;;4.5;100
49583;BME280;36329;48.816;44.624;2023-02-28T03:37:44;101509;;;4.7;100
49583;BME280;36329;48.816;44.624;2023-02-28T03:40:49;101501;;;4.6;100
49583;BME280;36329;48.816;44.624;2023-02-28T03:43:54;101512;;;4.5;100
49583;BME280;36329;48.816;44.624;2023-02-28T03:47:03;101511;;;4.2;100
49583;BME280;36329;48.816;44.624;2023-02-28T03:50:21;101516;;;4.3;100
49583;BME280;36329;48.816;44.624;2023-02-28T03:53:39;101504;;;4.2;100
49583;BME280;36329;48.816;44.624;2023-02-28T03:56:49;101513;;;4;100
49583;BME280;36329;48.816;44.624;2023-02-28T03:59:56;101518;;;4;100
49583;BME280;36329;48.816;44.624;2023-02-28T04:03:06;101522;;;4;100
49583;BME280;36329;48.816;44.624;2023-02-28T04:06:22;101518;;;4.4;100
49583;BME280;36329;48.816;44.624;2023-02-28T04:09:43;101513;;;4.4;100
49583;BME280;36329;48.816;44.624;2023-02-28T04:12:47;101518;;;4.1;100
49583;BME280;36329;48.816;44.624;2023-02-28T04:15:50;101526;;;4;100
49583;BME280;36329;48.816;44.624;2023-02-28T04:18:53;101527;;;4;100
49583;BME280;36329;48.816;44.624;2023-02-28T04:21:55;101518;;;3.9;100
49583;BME280;36329;48.816;44.624;2023-02-28T04:25:22;101514;;;3.9;100
49583;BME280;36329;48.816;44.624;2023-02-28T04:28:26;101516;;;3.9;100
49583;BME280;36329;48.816;44.624;2023-02-28T04:31:35;101531;;;3.8;100
49583;BME280;36329;48.816;44.624;2023-02-28T04:34:50;101537;;;4.1;100
49583;BME280;36329;48.816;44.624;2023-02-28T04:37:57;101537;;;4.2;100
49583;BME280;36329;48.816;44.624;2023-02-28T04:41:06;101541;;;4;100
49583;BME280;36329;48.816;44.624;2023-02-28T04:44:20;101549;;;4;100
49583;BME280;36329;48.816;44.624;2023-02-28T04:47:25;101553;;;4.4;100
49583;BME280;36329;48.816;44.624;2023-02-28T04:50:32;101555;;;4.2;100
49583;BME280;36329;48.816;44.624;2023-02-28T04:53:37;101557;;;4.3;100
49583;BME280;36329;48.816;44.624;2023-02-28T04:56:47;101545;;;4.2;100
49583;BME280;36329;48.816;44.624;2023-02-28T04:59:50;101546;;;4.3;100
49583;BME280;36329;48.816;44.624;2023-02-28T05:02:53;101545;;;4.3;100
49583;BME280;36329;48.816;44.624;2023-02-28T05:06:00;101536;;;4.2;100
49583;BME280;36329;48.816;44.624;2023-02-28T05:09:09;101539;;;4.3;100
49583;BME280;36329;48.816;44.624;2023-02-28T05:12:13;101538;;;4.3;100
49583;BME280;36329;48.816;44.624;2023-02-28T05:15:32;101536;;;4.3;100
49583;BME280;36329;48.816;44.624;2023-02-28T05:18:46;101537;;;4.4;100
49583;BME280;36329;48.816;44.624;2023-02-28T05:22:13;101536;;;4.4;100
49583;BME280;36329;48.816;44.624;2023-02-28T05:25:23;101540;;;4.4;100
49583;BME280;36329;48.816;44.624;2023-02-28T05:28:25;101541;;;4.2;100
49583;BME280;36329;48.816;44.624;2023-02-28T05:31:35;101532;;;4.2;100
49583;BME280;36329;48.816;44.624;2023-02-28T05:34:40;101527;;;4.3;100
49583;BME280;36329;48.816;44.624;2023-02-28T05:37:45;101525;;;4.3;100
49583;BME280;36329;48.816;44.624;2023-02-28T05:40:52;101516;;;4.3;100
49583;BME280;36329;48.816;44.624;2023-02-28T05:43:56;101515;;;4.6;100
49583;BME280;36329;48.816;44.624;2023-02-28T05:46:59;101521;;;4.5;100
49583;BME280;36329;48.816;44.624;2023-02-28T05:50:03;101528;;;4.4;100
49583;BME280;36329;48.816;44.624;2023-02-28T05:53:12;101533;;;4.3;100
49583;BME280;36329;48.816;44.624;2023-02-28T05:56:19;101533;;;4.2;100
49583;BME280;36329;48.816;44.624;2023-02-28T05:59:34;101520;;;4.2;100
49583;BME280;36329;48.816;44.624;2023-02-28T06:02:38;101513;;;4.2;100
49583;BME280;36329;48.816;44.624;2023-02-28T06:05:46;101510;;;4.2;100
49583;BME280;36329;48.816;44.624;2023-02-28T06:08:49;101504;;;4.2;100
49583;BME280;36329;48.816;44.624;2023-02-28T06:12:05;101504;;;4.2;100
49583;BME280;36329;48.816;44.624;2023-02-28T06:15:13;101493;;;4.3;100
49583;BME280;36329;48.816;44.624;2023-02-28T06:18:16;101482;;;4;100
49583;BME280;36329;48.816;44.624;2023-02-28T06:21:25;101468;;;4.1;100
49583;BME280;36329;48.816;44.624;2023-02-28T06:24:29;101455;;;4.2;100
49583;BME280;36329;48.816;44.624;2023-02-28T06:27:37;101454;;;4.2;100
49583;BME280;36329;48.816;44.624;2023-02-28T06:30:46;101455;;;4.3;100
49583;BME280;36329;48.816;44.624;2023-02-28T06:33:50;101459;;;4.4;100
49583;BME280;36329;48.816;44.624;2023-02-28T06:37:16;101458;;;4.4;100
49583;BME280;36329;48.816;44.624;2023-02-28T06:40:26;101463;;;4.3;100
49583;BME280;36329;48.816;44.624;2023-02-28T06:43:43;101451;;;3.8;100
49583;BME280;36329;48.816;44.624;2023-02-28T06:46:53;101452;;;4;100
49583;BME280;36329;48.816;44.624;2023-02-28T06:49:56;101463;;;4.2;100
49583;BME280;36329;48.816;44.624;2023-02-28T06:52:59;101456;;;4.3;100
49583;BME280;36329;48.816;44.624;2023-02-28T06:56:04;101464;;;4.3;100
49583;BME280;36329;48.816;44.624;2023-02-28T06:59:07;101463;;;4.5;100
49583;BME280;36329;48.816;44.624;2023-02-28T07:02:11;101458;;;4.3;100
49583;BME280;36329;48.816;44.624;2023-02-28T07:05:14;101460;;;4.2;100
49583;BME280;36329;48.816;44.624;2023-02-28T07:08:17;101453;;;4.5;100
49583;BME280;36329;48.816;44.624;2023-02-28T07:11:21;101450;;;4.3;100
49583;BME280;36329;48.816;44.624;2023-02-28T07:14:36;101455;;;4.2;100
49583;BME280;36329;48.816;44.624;2023-02-28T07:17:50;101444;;;4.4;100
49583;BME280;36329;48.816;44.624;2023-02-28T07:21:02;101440;;;4.4;100
49583;BME280;36329;48.816;44.624;2023-02-28T07:24:06;101441;;;4.3;100
49583;BME280;36329;48.816;44.624;2023-02-28T07:27:22;101434;;;4.2;100
49583;BME280;36329;48.816;44.624;2023-02-28T07:30:27;101429;;;4.3;100
49583;BME280;36329;48.816;44.624;2023-02-28T07:33:31;101428;;;4.1;100
49583;BME280;36329;48.816;44.624;2023-02-28T07:36:37;101422;;;4.1;100
49583;BME280;36329;48.816;44.624;2023-02-28T07:39:42;101430;;;4.3;100
49583;BME280;36329;48.816;44.624;2023-02-28T07:42:46;101422;;;4.4;100
49583;BME280;36329;48.816;44.624;2023-02-28T07:45:49;101439;;;4.2;100
49583;BME280;36329;48.816;44.624;2023-02-28T07:48:52;101446;;;4.4;100
49583;BME280;36329;48.816;44.624;2023-02-28T07:52:00;101454;;;4.2;100
49583;BME280;36329;48.816;44.624;2023-02-28T07:55:14;101455;;;4.1;100
49583;BME280;36329;48.816;44.624;2023-02-28T07:58:16;101463;;;4.3;100
49583;BME280;36329;48.816;44.624;2023-02-28T08:01:20;101458;;;4.3;100
49583;BME280;36329;48.816;44.624;2023-02-28T08:04:31;101452;;;4;100
49583;BME280;36329;48.816;44.624;2023-02-28T08:07:48;101454;;;4.1;100
49583;BME280;36329;48.816;44.624;2023-02-28T08:11:07;101454;;;4.2;100
49583;BME280;36329;48.816;44.624;2023-02-28T08:14:13;101453;;;4.1;100
49583;BME280;36329;48.816;44.624;2023-02-28T08:17:16;101450;;;4.4;100
49583;BME280;36329;48.816;44.624;2023-02-28T08:20:25;101452;;;4.5;100
49583;BME280;36329;48.816;44.624;2023-02-28T08:23:34;101449;;;4.4;100
49583;BME280;36329;48.816;44.624;2023-02-28T08:26:38;101464;;;4.4;100
49583;BME280;36329;48.816;44.624;2023-02-28T08:29:55;101468;;;4.5;100
49583;BME280;36329;48.816;44.624;2023-02-28T08:33:09;101489;;;4.5;99.4
49583;BME280;36329;48.816;44.624;2023-02-28T08:36:23;101494;;;4.6;98.8
49583;BME280;36329;48.816;44.624;2023-02-28T08:39:39;101494;;;4.5;99.6
49583;BME280;36329;48.816;44.624;2023-02-28T08:42:41;101496;;;4.6;99.6
49583;BME280;36329;48.816;44.624;2023-02-28T08:45:51;101504;;;4.4;100
49583;BME280;36329;48.816;44.624;2023-02-28T08:48:56;101508;;;4.5;100
49583;BME280;36329;48.816;44.624;2023-02-28T08:52:10;101496;;;4.6;100
49583;BME280;36329;48.816;44.624;2023-02-28T08:55:19;101488;;;4.6;99
49583;BME280;36329;48.816;44.624;2023-02-28T08:58:31;101474;;;4.8;99
49583;BME280;36329;48.816;44.624;2023-02-28T09:01:37;101470;;;4.9;98.6
49583;BME280;36329;48.816;44.624;2023-02-28T09:04:47;101465;;;4.8;97.6
49583;BME280;36329;48.816;44.624;2023-02-28T09:07:55;101461;;;4.8;98.1
49583;BME280;36329;48.816;44.624;2023-02-28T09:11:03;101453;;;4.9;97.7
49583;BME280;36329;48.816;44.624;2023-02-28T09:14:13;101459;;;5.1;96.9
49583;BME280;36329;48.816;44.624;2023-02-28T09:17:40;101455;;;5.2;95.9
49583;BME280;36329;48.816;44.624;2023-02-28T09:20:58;101440;;;5.3;95.3
49583;BME280;36329;48.816;44.624;2023-02-28T09:24:08;101440;;;5.2;95.7
49583;BME280;36329;48.816;44.624;2023-02-28T09:27:12;101460;;;5.3;95.7
49583;BME280;36329;48.816;44.624;2023-02-28T09:30:19;101451;;;5.2;96.6
49583;BME280;36329;48.816;44.624;2023-02-28T09:33:34;101443;;;5.2;96.6
49583;BME280;36329;48.816;44.624;2023-02-28T09:36:38;101447;;;5.1;97.6
49583;BME280;36329;48.816;44.624;2023-02-28T09:39:41;101434;;;4.8;96.9
49583;BME280;36329;48.816;44.624;2023-02-28T09:43:15;101418;;;4.7;99.1
49583;BME280;36329;48.816;44.624;2023-02-28T09:46:35;101408;;;4.8;99
49583;BME280;36329;48.816;44.624;2023-02-28T09:49:58;101412;;;4.8;98.7
49583;BME280;36329;48.816;44.624;2023-02-28T09:53:15;101411;;;4.8;99.4
49583;BME280;36329;48.816;44.624;2023-02-28T09:56:25;101406;;;4.9;98
49583;BME280;36329;48.816;44.624;2023-02-28T09:59:48;101417;;;4.7;100
49583;BME280;36329;48.816;44.624;2023-02-28T10:03:23;101411;;;4.7;100
49583;BME280;36329;48.816;44.624;2023-02-28T10:06:41;101410;;;4.8;100
49583;BME280;36329;48.816;44.624;2023-02-28T10:09:55;101393;;;4.7;100
49583;BME280;36329;48.816;44.624;2023-02-28T10:13:06;101394;;;4.8;100
49583;BME280;36329;48.816;44.624;2023-02-28T10:16:31;101386;;;4.9;100
49583;BME280;36329;48.816;44.624;2023-02-28T10:19:59;101375;;;5.1;100
49583;BME280;36329;48.816;44.624;2023-02-28T10:23:28;101389;;;5;100
49583;BME280;36329;48.816;44.624;2023-02-28T10:26:56;101379;;;4.8;100
49583;BME280;36329;48.816;44.624;2023-02-28T10:30:10;101382;;;4.8;100
49583;BME280;36329;48.816;44.624;2023-02-28T10:33:19;101369;;;4.8;100
49583;BME280;36329;48.816;44.624;2023-02-28T10:36:29;101359;;;4.6;100
49583;BME280;36329;48.816;44.624;2023-02-28T10:39:39;101341;;;4.6;100
49583;BME280;36329;48.816;44.624;2023-02-28T10:43:04;101339;;;4.7;100
49583;BME280;36329;48.816;44.624;2023-02-28T10:46:24;101344;;;5;100
49583;BME280;36329;48.816;44.624;2023-02-28T10:49:33;101340;;;5.1;100
49583;BME280;36329;48.816;44.624;2023-02-28T10:52:47;101347;;;5.2;100
49583;BME280;36329;48.816;44.624;2023-02-28T10:56:05;101357;;;5;100
49583;BME280;36329;48.816;44.624;2023-02-28T10:59:26;101353;;;5;100
49583;BME280;36329;48.816;44.624;2023-02-28T11:02:41;101358;;;4.9;100
49583;BME280;36329;48.816;44.624;2023-02-28T11:05:48;101349;;;5.2;100
49583;BME280;36329;48.816;44.624;2023-02-28T11:09:18;101346;;;5;100
49583;BME280;36329;48.816;44.624;2023-02-28T11:12:38;101339;;;4.9;100
49583;BME280;36329;48.816;44.624;2023-02-28T11:15:42;101327;;;4.7;100
49583;BME280;36329;48.816;44.624;2023-02-28T11:18:58;101329;;;5;100
49583;BME280;36329;48.816;44.624;2023-02-28T11:22:11;101327;;;5.1;100
49583;BME280;36329;48.816;44.624;2023-02-28T11:25:30;101322;;;5.1;100
49583;BME280;36329;48.816;44.624;2023-02-28T11:29:03;101315;;;5;100
49583;BME280;36329;48.816;44.624;2023-02-28T11:32:32;101310;;;4.7;100
49583;BME280;36329;48.816;44.624;2023-02-28T11:35:42;101312;;;4.6;100
49583;BME280;36329;48.816;44.624;2023-02-28T11:38:46;101316;;;4.7;100
49583;BME280;36329;48.816;44.624;2023-02-28T11:42:13;101327;;;4.9;100
49583;BME280;36329;48.816;44.624;2023-02-28T11:45:48;101327;;;4.8;100
49583;BME280;36329;48.816;44.624;2023-02-28T11:49:15;101329;;;4.9;100
49583;BME280;36329;48.816;44.624;2023-02-28T11:52:34;101329;;;5.1;99.4
49583;BME280;36329;48.816;44.624;2023-02-28T11:55:45;101330;;;5;98.7
49583;BME280;36329;48.816;44.624;2023-02-28T11:59:18;101327;;;5;98.2
49583;BME280;36329;48.816;44.624;2023-02-28T12:02:34;101322;;;5;98.2
49583;BME280;36329;48.816;44.624;2023-02-28T12:06:00;101318;;;5.1;97.3
49583;BME280;36329;48.816;44.624;2023-02-28T12:09:20;101316;;;5.1;97
49583;BME280;36329;48.816;44.624;2023-02-28T12:12:37;101320;;;5;98.3
49583;BME280;36329;48.816;44.624;2023-02-28T12:19:29;101309;;;4.6;100
49583;BME280;36329;48.816;44.624;2023-02-28T12:23:23;101294;;;4.7;99.9
49583;BME280;36329;48.816;44.624;2023-02-28T12:26:54;101298;;;4.9;98.8
49583;BME280;36329;48.816;44.624;2023-02-28T12:30:30;101297;;;5.1;97.9
49583;BME280;36329;48.816;44.624;2023-02-28T12:33:52;101291;;;4.8;97.7
49583;BME280;36329;48.816;44.624;2023-02-28T12:37:06;101293;;;4.8;98.2
49583;BME280;36329;48.816;44.624;2023-02-28T12:40:43;101293;;;4.7;99.3
49583;BME280;36329;48.816;44.624;2023-02-28T12:44:12;101296;;;4.6;99.3
49583;BME280;36329;48.816;44.624;2023-02-28T12:47:19;101293;;;4.5;100
49583;BME280;36329;48.816;44.624;2023-02-28T12:50:34;101292;;;4.4;100
49583;BME280;36329;48.816;44.624;2023-02-28T12:53:57;101288;;;4.7;99.5
49583;BME280;36329;48.816;44.624;2023-02-28T12:57:15;101284;;;4.7;99.3
49583;BME280;36329;48.816;44.624;2023-02-28T13:00:35;101277;;;4.7;99.8
49583;BME280;36329;48.816;44.624;2023-02-28T13:03:52;101287;;;4.5;99.8
49583;BME280;36329;48.816;44.624;2023-02-28T13:11:25;101286;;;4.4;100
49583;BME280;36329;48.816;44.624;2023-02-28T13:14:47;101279;;;4.3;100
49583;BME280;36329;48.816;44.624;2023-02-28T13:18:26;101267;;;4.4;100
49583;BME280;36329;48.816;44.624;2023-02-28T13:21:46;101273;;;4.2;100
49583;BME280;36329;48.816;44.624;2023-02-28T13:25:01;101263;;;4.3;100
49583;BME280;36329;48.816;44.624;2023-02-28T13:32:29;101261;;;4.4;98.4
49583;BME280;36329;48.816;44.624;2023-02-28T13:35:44;101263;;;4.5;97
49583;BME280;36329;48.816;44.624;2023-02-28T13:42:47;101254;;;4.1;97.3
49583;BME280;36329;48.816;44.624;2023-02-28T13:46:12;101248;;;4;98.5
49583;BME280;36329;48.816;44.624;2023-02-28T13:49:31;101254;;;4.1;97.9
49583;BME280;36329;48.816;44.624;2023-02-28T13:52:46;101239;;;4.2;98
49583;BME280;36329;48.816;44.624;2023-02-28T13:56:08;101227;;;4.2;96.8
49583;BME280;36329;48.816;44.624;2023-02-28T13:59:26;101228;;;4.2;97.5
49583;BME280;36329;48.816;44.624;2023-02-28T14:02:48;101232;;;4;97.2
49583;BME280;36329;48.816;44.624;2023-02-28T14:06:22;101225;;;4.1;98.2
49583;BME280;36329;48.816;44.624;2023-02-28T14:10:07;101221;;;4.3;97.6
49583;BME280;36329;48.816;44.624;2023-02-28T14:16:59;101221;;;4.3;96.4
49583;BME280;36329;48.816;44.624;2023-02-28T14:20:17;101220;;;4;97.6
49583;BME280;36329;48.816;44.624;2023-02-28T14:27:22;101212;;;4;97.6
49583;BME280;36329;48.816;44.624;2023-02-28T14:31:06;101212;;;3.8;98.2
49583;BME280;36329;48.816;44.624;2023-02-28T14:34:38;101210;;;3.8;98
49583;BME280;36329;48.816;44.624;2023-02-28T14:38:05;101216;;;3.8;98.3
49583;BME280;36329;48.816;44.624;2023-02-28T14:41:53;101212;;;3.7;98.7
49583;BME280;36329;48.816;44.624;2023-02-28T14:45:30;101218;;;3.8;98.6
49583;BME280;36329;48.816;44.624;2023-02-28T14:48:46;101213;;;3.7;99
49583;BME280;36329;48.816;44.624;2023-02-28T14:51:50;101221;;;3.7;98.3
49583;BME280;36329;48.816;44.624;2023-02-28T14:55:18;101215;;;3.6;98.2
49583;BME280;36329;48.816;44.624;2023-02-28T14:58:37;101216;;;3.6;99.3
49583;BME280;36329;48.816;44.624;2023-02-28T15:01:45;101217;;;3.7;98.5
49583;BME280;36329;48.816;44.624;2023-02-28T15:05:02;101208;;;3.7;97.7
49583;BME280;36329;48.816;44.624;2023-02-28T15:08:33;101217;;;3.4;98.9
49583;BME280;36329;48.816;44.624;2023-02-28T15:11:59;101220;;;3.6;98
49583;BME280;36329;48.816;44.624;2023-02-28T15:15:15;101219;;;3.4;97.4
49583;BME280;36329;48.816;44.624;2023-02-28T15:18:31;101220;;;3.2;98.9
49583;BME280;36329;48.816;44.624;2023-02-28T15:21:49;101218;;;3.5;99.5
49583;BME280;36329;48.816;44.624;2023-02-28T15:25:18;101229;;;3.4;98.5
49583;BME280;36329;48.816;44.624;2023-02-28T15:28:41;101225;;;3.2;100
49583;BME280;36329;48.816;44.624;2023-02-28T15:31:48;101225;;;3.2;100
49583;BME280;36329;48.816;44.624;2023-02-28T15:34:55;101222;;;3.3;100
49583;BME280;36329;48.816;44.624;2023-02-28T15:38:16;101222;;;3.3;99.5
49583;BME280;36329;48.816;44.624;2023-02-28T15:41:27;101219;;;3.3;99.8
49583;BME280;36329;48.816;44.624;2023-02-28T15:44:35;101218;;;3.3;99.8
49583;BME280;36329;48.816;44.624;2023-02-28T15:48:01;101213;;;3.1;100
49583;BME280;36329;48.816;44.624;2023-02-28T15:51:08;101209;;;3;100
49583;BME280;36329;48.816;44.624;2023-02-28T15:54:22;101209;;;3.3;100
49583;BME280;36329;48.816;44.624;2023-02-28T15:57:45;101206;;;3.1;99.8
49583;BME280;36329;48.816;44.624;2023-02-28T16:01:24;101203;;;3.2;100
49583;BME280;36329;48.816;44.624;2023-02-28T16:04:56;101200;;;3;100
49583;BME280;36329;48.816;44.624;2023-02-28T16:08:13;101198;;;3;99.9
49583;BME280;36329;48.816;44.624;2023-02-28T16:11:33;101197;;;3.1;99.9
49583;BME280;36329;48.816;44.624;2023-02-28T16:14:51;101191;;;3.1;99
49583;BME280;36329;48.816;44.624;2023-02-28T16:18:25;101195;;;3.1;97.9
49583;BME280;36329;48.816;44.624;2023-02-28T16:21:39;101193;;;2.9;97.5
49583;BME280;36329;48.816;44.624;2023-02-28T16:24:51;101193;;;2.9;98.4
49583;BME280;36329;48.816;44.624;2023-02-28T16:28:17;101190;;;2.7;97.4
49583;BME280;36329;48.816;44.624;2023-02-28T16:31:25;101181;;;2.7;98.4
49583;BME280;36329;48.816;44.624;2023-02-28T16:34:53;101184;;;2.7;98.2
49583;BME280;36329;48.816;44.624;2023-02-28T16:38:19;101189;;;2.4;99.4
49583;BME280;36329;48.816;44.624;2023-02-28T16:41:31;101178;;;2.3;100
49583;BME280;36329;48.816;44.624;2023-02-28T16:44:44;101176;;;2.2;99.4
49583;BME280;36329;48.816;44.624;2023-02-28T16:47:50;101180;;;2.1;99.7
49583;BME280;36329;48.816;44.624;2023-02-28T16:51:10;101177;;;2.1;97.5
49583;BME280;36329;48.816;44.624;2023-02-28T16:54:35;101174;;;2.1;97
49583;BME280;36329;48.816;44.624;2023-02-28T16:58:02;101182;;;1.9;97.8
49583;BME280;36329;48.816;44.624;2023-02-28T17:01:21;101190;;;1.8;97.9
49583;BME280;36329;48.816;44.624;2023-02-28T17:04:48;101181;;;1.9;94.7
49583;BME280;36329;48.816;44.624;2023-02-28T17:08:11;101173;;;1.9;93.2
49583;BME280;36329;48.816;44.624;2023-02-28T17:11:38;101171;;;1.9;91
49583;BME280;36329;48.816;44.624;2023-02-28T17:14:56;101165;;;2;91.9
49583;BME280;36329;48.816;44.624;2023-02-28T17:18:30;101163;;;2.1;90.9
49583;BME280;36329;48.816;44.624;2023-02-28T17:21:47;101167;;;2;92.5
49583;BME280;36329;48.816;44.624;2023-02-28T17:25:20;101160;;;1.9;92.5
49583;BME280;36329;48.816;44.624;2023-02-28T17:28:26;101149;;;1.8;91.7
49583;BME280;36329;48.816;44.624;2023-02-28T17:32:00;101152;;;1.6;92.6
49583;BME280;36329;48.816;44.624;2023-02-28T17:35:04;101144;;;1.8;91.9
49583;BME280;36329;48.816;44.624;2023-02-28T17:38:14;101147;;;1.6;92
49583;BME280;36329;48.816;44.624;2023-02-28T17:41:22;101140;;;1.5;92.7
49583;BME280;36329;48.816;44.624;2023-02-28T17:44:25;101139;;;1.7;91.9
49583;BME280;36329;48.816;44.624;2023-02-28T17:47:27;101146;;;1.7;92.1
49583;BME280;36329;48.816;44.624;2023-02-28T17:50:31;101142;;;1.8;91.3
49583;BME280;36329;48.816;44.624;2023-02-28T17:53:33;101139;;;2;90.9
49583;BME280;36329;48.816;44.624;2023-02-28T17:56:36;101137;;;1.9;90.6
49583;BME280;36329;48.816;44.624;2023-02-28T17:59:40;101136;;;1.8;90.9
49583;BME280;36329;48.816;44.624;2023-02-28T18:02:43;101133;;;1.8;91.2
49583;BME280;36329;48.816;44.624;2023-02-28T18:05:46;101130;;;1.7;89.7
49583;BME280;36329;48.816;44.624;2023-02-28T18:08:50;101126;;;1.6;89
49583;BME280;36329;48.816;44.624;2023-02-28T18:12:00;101122;;;1.5;90.4
49583;BME280;36329;48.816;44.624;2023-02-28T18:15:03;101129;;;1.6;91
49583;BME280;36329;48.816;44.624;2023-02-28T18:18:05;101131;;;1.6;90.1
49583;BME280;36329;48.816;44.624;2023-02-28T18:21:15;101123;;;1.4;88.6
49583;BME280;36329;48.816;44.624;2023-02-28T18:24:19;101121;;;1.3;89.4
49583;BME280;36329;48.816;44.624;2023-02-28T18:27:21;101122;;;1.4;88.9
49583;BME280;36329;48.816;44.624;2023-02-28T18:30:24;101124;;;1.3;87.2
49583;BME280;36329;48.816;44.624;2023-02-28T18:33:26;101119;;;1.2;85.9
49583;BME280;36329;48.816;44.624;2023-02-28T18:36:28;101115;;;1;86.9